Aviation Digital Data Service (ADDS)

Output produced by METARs form (1531 UTC 20 November 2018)
found at http://www.aviationweather.gov/metar/data/
 
METAR text: KMYF 201453Z 00000KT 10SM CLR 11/06 A3001 RMK AO2 SLP162 T01110056 53007
Conditions at: KMYF (SAN DIEGO/MNTGMY, CA, US) observed 1453 UTC 20 November 2018
Temperature: 11.1°C (52°F)
Dewpoint: 5.6°C (42°F) [RH = 69%]
Pressure (altimeter): 30.01 inches Hg (1016.3 mb)
[Sea-level pressure: 1016.2 mb]
Winds: calm
Visibility: 10 or more miles (16+ km)
Ceiling: at least 12,000 feet AGL
Clouds: sky clear below 12,000 feet AGL
Weather: no significant weather observed at this time

METAR text: KMYF 201353Z 10003KT 10SM CLR 11/06 A2999 RMK AO2 SLP155 T01060056
Conditions at: KMYF (SAN DIEGO/MNTGMY, CA, US) observed 1353 UTC 20 November 2018
Temperature: 10.6°C (51°F)
Dewpoint: 5.6°C (42°F) [RH = 71%]
Pressure (altimeter): 29.99 inches Hg (1015.7 mb)
[Sea-level pressure: 1015.5 mb]
Winds: from the E (100 degrees) at 3 MPH (3 knots; 1.5 m/s)
Visibility: 10 or more miles (16+ km)
Ceiling: at least 12,000 feet AGL
Clouds: sky clear below 12,000 feet AGL
Weather: no significant weather observed at this time

METAR text: KMYF 201253Z AUTO 00000KT 10SM CLR 12/06 A2999 RMK AO2 SLP153 T01220061
Conditions at: KMYF (SAN DIEGO/MNTGMY, CA, US) observed 1253 UTC 20 November 2018
Temperature: 12.2°C (54°F)
Dewpoint: 6.1°C (43°F) [RH = 66%]
Pressure (altimeter): 29.99 inches Hg (1015.7 mb)
[Sea-level pressure: 1015.3 mb]
Winds: calm
Visibility: 10 or more miles (16+ km)
Ceiling: at least 12,000 feet AGL
Clouds: sky clear below 12,000 feet AGL
Weather: automated observation with no human augmentation;
there may or may not be significant weather present at this time

METAR text: KMYF 201153Z AUTO 00000KT 10SM CLR 12/07 A2999 RMK AO2 SLP154 T01170072 10144 20111 56003
Conditions at: KMYF (SAN DIEGO/MNTGMY, CA, US) observed 1153 UTC 20 November 2018
Temperature: 11.7°C (53°F)
Dewpoint: 7.2°C (45°F) [RH = 74%]
Pressure (altimeter): 29.99 inches Hg (1015.7 mb)
[Sea-level pressure: 1015.4 mb]
Winds: calm
Visibility: 10 or more miles (16+ km)
Ceiling: at least 12,000 feet AGL
Clouds: sky clear below 12,000 feet AGL
Weather: automated observation with no human augmentation;
there may or may not be significant weather present at this time

METAR text: KMYF 201053Z AUTO 00000KT 10SM CLR 13/08 A3000 RMK AO2 SLP155 T01280078
Conditions at: KMYF (SAN DIEGO/MNTGMY, CA, US) observed 1053 UTC 20 November 2018
Temperature: 12.8°C (55°F)
Dewpoint: 7.8°C (46°F) [RH = 72%]
Pressure (altimeter): 30.00 inches Hg (1016.0 mb)
[Sea-level pressure: 1015.5 mb]
Winds: calm
Visibility: 10 or more miles (16+ km)
Ceiling: at least 12,000 feet AGL
Clouds: sky clear below 12,000 feet AGL
Weather: automated observation with no human augmentation;
there may or may not be significant weather present at this time

METAR text: KMYF 200953Z AUTO 00000KT 9SM CLR 12/08 A3000 RMK AO2 SLP154 T01220083
Conditions at: KMYF (SAN DIEGO/MNTGMY, CA, US) observed 0953 UTC 20 November 2018
Temperature: 12.2°C (54°F)
Dewpoint: 8.3°C (47°F) [RH = 77%]
Pressure (altimeter): 30.00 inches Hg (1016.0 mb)
[Sea-level pressure: 1015.4 mb]
Winds: calm
Visibility: 9 miles (14 km)
Ceiling: at least 12,000 feet AGL
Clouds: sky clear below 12,000 feet AGL
Weather: automated observation with no human augmentation;
there may or may not be significant weather present at this time

METAR text: KMYF 200853Z AUTO 00000KT 9SM CLR 13/09 A3000 RMK AO2 SLP156 T01330089 56010
Conditions at: KMYF (SAN DIEGO/MNTGMY, CA, US) observed 0853 UTC 20 November 2018
Temperature: 13.3°C (56°F)
Dewpoint: 8.9°C (48°F) [RH = 75%]
Pressure (altimeter): 30.00 inches Hg (1016.0 mb)
[Sea-level pressure: 1015.6 mb]
Winds: calm
Visibility: 9 miles (14 km)
Ceiling: at least 12,000 feet AGL
Clouds: sky clear below 12,000 feet AGL
Weather: automated observation with no human augmentation;
there may or may not be significant weather present at this time

METAR text: KMYF 200753Z AUTO 00000KT 6SM HZ CLR 13/10 A3001 RMK AO2 SLP158 T01280100 402280094
Conditions at: KMYF (SAN DIEGO/MNTGMY, CA, US) observed 0753 UTC 20 November 2018
Temperature: 12.8°C (55°F)
Dewpoint: 10.0°C (50°F) [RH = 83%]
Pressure (altimeter): 30.01 inches Hg (1016.3 mb)
[Sea-level pressure: 1015.8 mb]
Winds: calm
Visibility: 6 miles (10 km)
Ceiling: at least 12,000 feet AGL
Clouds: sky clear below 12,000 feet AGL
Weather: HZ  (haze)